createdAt,value
2023-05-11T00:02:25.051Z,17.47
2023-05-11T00:04:52.113Z,18.17
2023-05-11T00:07:18.925Z,18.10
2023-05-11T00:09:45.723Z,18.60
2023-05-11T00:12:13.482Z,18.10
2023-05-11T00:14:40.788Z,18.50
2023-05-11T00:17:07.709Z,18.57
2023-05-11T00:19:34.563Z,17.80
2023-05-11T00:22:01.887Z,18.50
2023-05-11T00:24:28.731Z,18.47
2023-05-11T00:26:56.464Z,18.77
2023-05-11T00:29:23.312Z,19.17
2023-05-11T00:31:50.317Z,19.47
2023-05-11T00:34:18.186Z,18.67
2023-05-11T00:36:45.599Z,20.17
2023-05-11T00:39:12.731Z,19.17
2023-05-11T00:41:40.613Z,19.00
2023-05-11T00:44:07.761Z,18.13
2023-05-11T00:46:35.284Z,19.43
2023-05-11T00:49:02.514Z,20.20
2023-05-11T00:51:30.180Z,20.00
2023-05-11T00:53:57.338Z,21.67
2023-05-11T00:56:24.171Z,20.33
2023-05-11T00:58:51.524Z,18.70
2023-05-11T01:01:19.266Z,20.23
2023-05-11T01:03:47.457Z,21.23
2023-05-11T01:06:22.093Z,22.20
2023-05-11T01:09:02.763Z,22.40
2023-05-11T01:11:57.125Z,22.03
2023-05-11T01:14:31.528Z,20.10
2023-05-11T01:17:06.030Z,20.10
2023-05-11T01:19:40.430Z,19.77
2023-05-11T01:22:57.081Z,19.30
2023-05-11T01:26:07.141Z,19.47
2023-05-11T01:28:58.420Z,19.77
2023-05-11T01:31:30.517Z,19.10
2023-05-11T01:34:05.038Z,20.00
2023-05-11T01:36:39.004Z,19.50
2023-05-11T01:39:10.172Z,19.90
2023-05-11T01:41:40.393Z,19.47
2023-05-11T01:44:10.690Z,19.67
2023-05-11T01:46:38.757Z,17.70
2023-05-11T01:49:07.697Z,18.97
2023-05-11T01:51:37.768Z,17.73
2023-05-11T01:54:08.255Z,19.87
2023-05-11T01:56:37.444Z,18.90
2023-05-11T01:59:05.894Z,18.80
2023-05-11T02:01:35.964Z,18.40
2023-05-11T02:04:04.898Z,18.90
2023-05-11T02:06:34.589Z,19.93
2023-05-11T02:09:03.375Z,20.07
2023-05-11T02:11:32.267Z,21.23
2023-05-11T02:14:00.456Z,20.87
2023-05-11T02:16:28.569Z,24.30
2023-05-11T02:18:57.046Z,22.03
2023-05-11T02:21:25.787Z,21.20
2023-05-11T02:23:53.958Z,21.80
2023-05-11T02:26:20.964Z,21.70
2023-05-11T02:28:47.916Z,22.53
2023-05-11T02:31:21.297Z,21.10
2023-05-11T02:33:52.422Z,22.33
2023-05-11T02:36:22.394Z,22.50
2023-05-11T02:38:53.743Z,22.63
2023-05-11T02:41:27.020Z,24.60
2023-05-11T02:43:55.506Z,23.03
2023-05-11T02:46:28.440Z,23.20
2023-05-11T02:49:01.239Z,24.63
2023-05-11T02:51:36.069Z,22.47
2023-05-11T02:54:07.275Z,25.00
2023-05-11T02:56:34.400Z,22.80
2023-05-11T02:59:01.527Z,21.60
2023-05-11T03:01:30.847Z,22.10
2023-05-11T03:03:58.425Z,25.37
2023-05-11T03:06:26.041Z,23.60
2023-05-11T03:08:53.164Z,21.97
2023-05-11T03:11:21.510Z,22.87
2023-05-11T03:13:50.259Z,24.30
2023-05-11T03:16:20.923Z,23.47
2023-05-11T03:18:50.053Z,23.93
2023-05-11T03:21:21.550Z,25.13
2023-05-11T03:23:49.544Z,24.60
2023-05-11T03:26:19.402Z,25.37
2023-05-11T03:28:47.324Z,25.50
2023-05-11T03:31:14.641Z,24.40
2023-05-11T03:33:41.473Z,27.00
2023-05-11T03:36:10.741Z,25.83
2023-05-11T03:38:38.195Z,27.27
2023-05-11T03:41:05.044Z,29.93
2023-05-11T03:43:35.185Z,29.60
2023-05-11T03:46:04.419Z,25.63
2023-05-11T03:48:32.453Z,29.17
2023-05-11T03:51:00.164Z,31.37
2023-05-11T03:53:27.112Z,31.10
2023-05-11T03:55:54.953Z,32.03
2023-05-11T03:58:22.892Z,31.30
2023-05-11T04:00:50.232Z,30.07
2023-05-11T04:03:17.201Z,30.50
2023-05-11T04:05:44.138Z,31.47
2023-05-11T04:08:11.987Z,34.77
2023-05-11T04:10:38.858Z,32.50
2023-05-11T04:13:05.890Z,35.03
2023-05-11T04:15:32.755Z,33.37
2023-05-11T04:17:59.638Z,34.80
2023-05-11T04:20:26.823Z,35.70
2023-05-11T04:22:53.654Z,34.80
2023-05-11T04:25:20.592Z,32.77
2023-05-11T04:27:47.433Z,34.57
2023-05-11T04:30:14.471Z,35.30
2023-05-11T04:32:41.441Z,33.03
2023-05-11T04:35:08.754Z,33.00
2023-05-11T04:37:35.673Z,34.70
2023-05-11T04:40:02.589Z,31.37
2023-05-11T04:42:30.708Z,30.57
2023-05-11T04:44:57.541Z,30.80
2023-05-11T04:47:24.405Z,29.53
2023-05-11T04:49:52.119Z,30.13
2023-05-11T04:52:19.001Z,28.70
2023-05-11T04:54:45.999Z,28.03
2023-05-11T04:57:12.842Z,27.90
2023-05-11T04:59:39.781Z,26.53
2023-05-11T05:02:06.653Z,24.53
2023-05-11T05:04:35.631Z,23.70
2023-05-11T05:07:04.489Z,23.47
2023-05-11T05:09:31.331Z,24.10
2023-05-11T05:11:58.282Z,22.70
2023-05-11T05:14:25.132Z,21.97
2023-05-11T05:16:54.641Z,21.23
2023-05-11T05:19:21.602Z,21.20
2023-05-11T05:21:48.561Z,21.63
2023-05-11T05:24:15.564Z,23.50
2023-05-11T05:26:42.372Z,21.90
2023-05-11T05:29:09.302Z,22.03
2023-05-11T05:31:36.178Z,21.43
2023-05-11T05:34:02.989Z,24.70
2023-05-11T05:36:29.798Z,22.30
2023-05-11T05:38:56.614Z,22.53
2023-05-11T05:41:23.547Z,22.13
2023-05-11T05:43:50.459Z,22.70
2023-05-11T05:46:18.139Z,20.73
2023-05-11T05:48:45.022Z,22.27
2023-05-11T05:51:11.909Z,24.50
2023-05-11T05:53:39.040Z,23.90
2023-05-11T05:56:06.257Z,25.00
2023-05-11T05:58:33.161Z,24.40
2023-05-11T06:01:01.027Z,24.57
2023-05-11T06:03:29.466Z,25.20
2023-05-11T06:05:56.751Z,24.60
2023-05-11T06:08:23.633Z,24.50
2023-05-11T06:10:50.571Z,24.40
2023-05-11T06:13:17.394Z,25.70
2023-05-11T06:15:44.225Z,24.33
2023-05-11T06:18:11.316Z,25.47
2023-05-11T06:20:38.205Z,27.03
2023-05-11T06:23:05.175Z,27.27
2023-05-11T06:25:35.079Z,29.60
2023-05-11T06:28:02.183Z,28.90
2023-05-11T06:30:29.707Z,29.53
2023-05-11T06:32:56.652Z,27.63
2023-05-11T06:35:23.624Z,29.57
2023-05-11T06:37:50.590Z,30.43
2023-05-11T06:40:17.671Z,29.73
2023-05-11T06:42:44.799Z,32.70
2023-05-11T06:45:11.757Z,29.73
2023-05-11T06:47:38.699Z,30.30
2023-05-11T06:50:06.166Z,30.90
2023-05-11T06:52:32.968Z,31.93
2023-05-11T06:54:59.801Z,32.20
2023-05-11T06:57:26.657Z,31.77
2023-05-11T06:59:53.515Z,34.90
2023-05-11T07:02:20.516Z,33.67
2023-05-11T07:04:47.387Z,34.17
2023-05-11T07:07:14.230Z,33.20
2023-05-11T07:09:42.080Z,32.63
2023-05-11T07:12:09.066Z,32.57
2023-05-11T07:14:35.913Z,34.83
2023-05-11T07:17:02.786Z,35.90
2023-05-11T07:19:29.702Z,34.40
2023-05-11T07:21:56.608Z,37.13
2023-05-11T07:24:23.516Z,34.93
2023-05-11T07:26:52.032Z,34.60
2023-05-11T07:29:18.888Z,32.60
2023-05-11T07:31:46.073Z,35.30
2023-05-11T07:34:12.962Z,34.13
2023-05-11T07:36:39.864Z,32.97
2023-05-11T07:39:06.835Z,32.63
2023-05-11T07:41:33.699Z,30.70
2023-05-11T07:44:01.873Z,31.60
2023-05-11T07:46:28.802Z,32.30
2023-05-11T07:49:11.336Z,31.00
2023-05-11T07:51:42.830Z,33.20
2023-05-11T07:54:09.776Z,32.27
2023-05-11T07:56:36.641Z,34.20
2023-05-11T07:59:03.503Z,31.63
2023-05-11T08:01:30.432Z,30.33
2023-05-11T08:03:57.265Z,29.07
2023-05-11T08:06:24.112Z,29.20
2023-05-11T08:08:51.512Z,29.53
2023-05-11T08:11:18.559Z,29.70
2023-05-11T08:13:45.380Z,28.17
2023-05-11T08:16:12.701Z,28.17
2023-05-11T08:18:39.652Z,29.20
2023-05-11T08:21:07.760Z,28.53
2023-05-11T08:23:34.748Z,28.57
2023-05-11T08:28:42.290Z,25.17
2023-05-11T08:31:09.151Z,26.10
2023-05-11T08:33:38.628Z,27.30
2023-05-11T08:36:07.000Z,25.70
2023-05-11T08:38:35.654Z,26.87
2023-05-11T08:41:02.978Z,27.03
2023-05-11T08:43:31.956Z,26.77
2023-05-11T08:46:04.368Z,26.30
2023-05-11T08:48:32.068Z,24.40
2023-05-11T08:50:59.496Z,25.10
2023-05-11T08:53:26.620Z,25.53
2023-05-11T08:55:58.077Z,24.50
2023-05-11T08:58:25.540Z,24.60
2023-05-11T09:00:52.542Z,24.17
2023-05-11T09:03:19.809Z,24.67
2023-05-11T09:05:47.686Z,23.43
2023-05-11T09:08:15.543Z,23.90
2023-05-11T09:10:43.810Z,23.20
2023-05-11T09:13:11.321Z,21.90
2023-05-11T09:15:38.533Z,22.43
2023-05-11T09:18:05.895Z,21.87
2023-05-11T09:20:34.078Z,19.53
2023-05-11T09:23:01.443Z,20.17
2023-05-11T09:25:33.744Z,19.53
2023-05-11T09:28:00.899Z,19.80
2023-05-11T09:30:28.388Z,19.57
2023-05-11T09:32:57.280Z,19.07
2023-05-11T09:35:26.601Z,19.50
2023-05-11T09:38:05.461Z,19.20
2023-05-11T09:40:50.077Z,17.67
2023-05-11T09:43:25.075Z,18.47
2023-05-11T09:45:54.409Z,19.10
2023-05-11T09:48:21.422Z,17.57
2023-05-11T09:50:50.324Z,20.63
2023-05-11T09:53:17.830Z,17.67
2023-05-11T09:55:56.046Z,18.20
2023-05-11T09:58:23.008Z,17.60
2023-05-11T10:00:56.666Z,17.60
2023-05-11T10:03:25.857Z,17.20
2023-05-11T10:06:00.810Z,17.83
2023-05-11T10:08:30.385Z,15.90
2023-05-11T10:10:57.962Z,19.83
2023-05-11T10:13:25.032Z,17.63
2023-05-11T10:15:52.968Z,19.10
2023-05-11T10:18:20.389Z,19.07
2023-05-11T10:20:47.897Z,21.03
2023-05-11T10:23:16.014Z,20.83
2023-05-11T10:25:43.265Z,21.07
2023-05-11T10:28:11.038Z,20.80
2023-05-11T10:30:38.454Z,22.93
2023-05-11T10:33:06.926Z,20.80
2023-05-11T10:35:34.169Z,21.30
2023-05-11T10:38:01.431Z,21.00
2023-05-11T10:40:28.812Z,21.03
2023-05-11T10:43:13.633Z,20.13
2023-05-11T10:45:47.056Z,23.07
2023-05-11T10:48:35.866Z,19.13
2023-05-11T10:51:34.349Z,20.43
2023-05-11T10:54:09.791Z,19.10
2023-05-11T10:57:04.969Z,20.00
2023-05-11T11:00:10.279Z,19.63
2023-05-11T11:02:38.225Z,21.50
2023-05-11T11:05:09.371Z,19.10
2023-05-11T11:07:59.933Z,20.60
2023-05-11T11:10:46.509Z,24.00
2023-05-11T11:13:15.278Z,21.40
2023-05-11T11:15:54.513Z,19.80
2023-05-11T11:18:25.430Z,19.07
2023-05-11T11:20:54.961Z,18.47
2023-05-11T11:23:40.274Z,20.30
2023-05-11T11:26:08.374Z,20.10
2023-05-11T11:28:53.919Z,20.33
2023-05-11T11:31:29.005Z,20.13
2023-05-11T11:33:59.385Z,19.87
2023-05-11T11:37:06.633Z,21.00
2023-05-11T11:39:47.507Z,19.87
2023-05-11T11:42:19.416Z,20.00
2023-05-11T11:44:46.710Z,19.27
2023-05-11T11:47:21.782Z,17.90
2023-05-11T11:49:56.037Z,18.93
2023-05-11T11:52:29.108Z,21.97
2023-05-11T11:54:57.376Z,20.30
2023-05-11T11:57:32.627Z,20.47
2023-05-11T12:00:13.050Z,19.50
2023-05-11T12:02:44.721Z,19.37
2023-05-11T12:05:20.007Z,18.80
2023-05-11T12:07:51.639Z,19.53
2023-05-11T12:10:21.371Z,16.00
2023-05-11T12:12:49.533Z,18.50
2023-05-11T12:15:27.460Z,16.30
2023-05-11T12:17:55.194Z,14.73
2023-05-11T12:20:26.087Z,15.30
2023-05-11T12:22:53.773Z,13.90
2023-05-11T12:25:22.077Z,14.67
2023-05-11T12:27:55.483Z,15.47
2023-05-11T12:30:24.832Z,18.37
2023-05-11T12:32:56.885Z,15.80
2023-05-11T12:35:28.139Z,15.47
2023-05-11T12:37:56.622Z,11.10
2023-05-11T12:40:24.028Z,12.80
2023-05-11T12:42:58.751Z,17.33
2023-05-11T12:45:27.138Z,13.63
2023-05-11T12:47:55.395Z,14.73
2023-05-11T12:50:22.840Z,14.07
2023-05-11T12:52:50.803Z,15.80
2023-05-11T12:55:28.802Z,17.43
2023-05-11T12:58:08.132Z,13.33
2023-05-11T13:00:35.378Z,11.80
2023-05-11T13:03:02.991Z,14.20
2023-05-11T13:05:30.413Z,11.83
2023-05-11T13:08:05.340Z,13.27
2023-05-11T13:10:32.374Z,13.57
2023-05-11T13:12:59.543Z,12.23
2023-05-11T13:15:28.778Z,12.73
2023-05-11T13:18:00.798Z,13.87
2023-05-11T13:20:35.225Z,13.23
2023-05-11T13:23:10.939Z,15.70
2023-05-11T13:25:48.376Z,12.90
2023-05-11T13:28:16.602Z,14.60
2023-05-11T13:30:43.936Z,14.53
2023-05-11T13:33:10.934Z,14.40
2023-05-11T13:35:41.954Z,14.37
2023-05-11T13:38:10.051Z,14.40
2023-05-11T13:40:37.481Z,14.97
2023-05-11T13:43:04.833Z,14.87
2023-05-11T13:45:31.677Z,14.60
2023-05-11T13:47:58.550Z,17.90
2023-05-11T13:50:26.849Z,17.77
2023-05-11T13:52:54.412Z,16.50
2023-05-11T13:55:21.664Z,17.10
2023-05-11T13:57:48.760Z,20.10
2023-05-11T14:00:16.277Z,19.77
2023-05-11T14:02:44.410Z,20.40
2023-05-11T14:05:11.484Z,20.23
2023-05-11T14:07:47.092Z,20.20
2023-05-11T14:10:15.833Z,18.53
2023-05-11T14:12:42.852Z,19.30
2023-05-11T14:15:10.591Z,18.30
2023-05-11T14:17:37.650Z,20.73
2023-05-11T14:20:06.181Z,20.80
2023-05-11T14:22:33.093Z,23.20
2023-05-11T14:25:00.208Z,23.00
2023-05-11T14:27:27.062Z,24.00
2023-05-11T14:29:54.591Z,24.97
2023-05-11T14:32:21.578Z,24.00
2023-05-11T14:34:48.909Z,23.43
2023-05-11T14:37:15.854Z,22.10
2023-05-11T14:39:42.736Z,20.83
2023-05-11T14:42:10.902Z,22.23
2023-05-11T14:44:38.110Z,22.13
2023-05-11T14:47:05.638Z,19.13
2023-05-11T14:49:32.576Z,21.63
2023-05-11T14:51:59.824Z,21.60
2023-05-11T14:54:26.725Z,18.20
2023-05-11T14:56:56.170Z,20.17
2023-05-11T14:59:24.543Z,19.47
2023-05-11T15:01:51.647Z,20.73
2023-05-11T15:04:19.626Z,22.17
2023-05-11T15:06:46.830Z,23.57
2023-05-11T15:09:13.919Z,21.60
2023-05-11T15:11:40.989Z,24.10
2023-05-11T15:14:07.820Z,25.37
2023-05-11T15:16:34.741Z,23.90
2023-05-11T15:19:01.782Z,22.30
2023-05-11T15:21:28.633Z,23.00
2023-05-11T15:23:55.691Z,21.50
2023-05-11T15:26:23.008Z,22.70
2023-05-11T15:28:50.160Z,20.83
2023-05-11T15:31:17.398Z,22.03
2023-05-11T15:33:44.896Z,25.67
2023-05-11T15:36:13.736Z,25.70
2023-05-11T15:38:41.552Z,24.30
2023-05-11T15:41:08.401Z,25.83
2023-05-11T15:43:35.463Z,26.50
2023-05-11T15:46:05.803Z,28.77
2023-05-11T15:48:35.774Z,28.07
2023-05-11T15:51:03.046Z,26.57
2023-05-11T15:53:30.012Z,25.87
2023-05-11T15:55:57.126Z,24.83
2023-05-11T15:58:24.050Z,22.27
2023-05-11T16:00:51.416Z,20.50
2023-05-11T16:03:20.146Z,22.37
2023-05-11T16:05:47.224Z,23.83
2023-05-11T16:08:14.762Z,21.60
2023-05-11T16:10:45.634Z,21.33
2023-05-11T16:13:12.536Z,24.70
2023-05-11T16:15:39.395Z,23.20
2023-05-11T16:18:06.755Z,23.90
2023-05-11T16:20:33.683Z,24.23
2023-05-11T16:23:00.537Z,25.20
2023-05-11T16:25:27.432Z,24.53
2023-05-11T16:27:54.364Z,25.10
2023-05-11T16:30:25.554Z,25.00
2023-05-11T16:32:53.585Z,23.50
2023-05-11T16:35:20.958Z,22.57
2023-05-11T16:37:48.379Z,21.00
2023-05-11T16:40:19.424Z,21.57
2023-05-11T16:42:47.584Z,22.13
2023-05-11T16:45:15.208Z,20.30
2023-05-11T16:47:42.694Z,18.80
2023-05-11T16:50:10.903Z,20.33
2023-05-11T16:52:37.714Z,21.23
2023-05-11T16:55:05.120Z,20.77
2023-05-11T16:57:31.999Z,24.43
2023-05-11T16:59:58.877Z,18.57
2023-05-11T17:02:25.940Z,20.50
2023-05-11T17:04:53.101Z,19.37
2023-05-11T17:07:19.945Z,18.47
2023-05-11T17:09:46.848Z,18.30
2023-05-11T17:12:13.735Z,17.27
2023-05-11T17:14:40.561Z,17.90
2023-05-11T17:17:08.238Z,18.63
2023-05-11T17:19:35.084Z,15.93
2023-05-11T17:22:02.432Z,15.20
2023-05-11T17:24:29.407Z,15.80
2023-05-11T17:26:56.308Z,16.27
2023-05-11T17:29:23.522Z,15.90
2023-05-11T17:31:52.070Z,13.63
2023-05-11T17:34:20.531Z,14.53
2023-05-11T17:36:48.574Z,14.97
2023-05-11T17:39:16.666Z,14.27
2023-05-11T17:41:43.819Z,15.87
2023-05-11T17:44:10.833Z,15.30
2023-05-11T17:46:37.693Z,13.30
2023-05-11T17:49:06.135Z,15.23
2023-05-11T17:51:33.094Z,13.60
2023-05-11T17:53:59.939Z,13.53
2023-05-11T17:56:26.948Z,11.00
2023-05-11T17:58:53.779Z,11.73
2023-05-11T18:01:22.900Z,9.90
2023-05-11T18:03:50.312Z,8.83
2023-05-11T18:06:17.309Z,9.67
2023-05-11T18:08:44.174Z,9.40
2023-05-11T18:11:12.982Z,8.43
2023-05-11T18:13:40.042Z,8.00
2023-05-11T18:16:07.386Z,7.97
2023-05-11T18:18:34.612Z,7.33
2023-05-11T18:21:08.328Z,6.83
2023-05-11T18:23:35.153Z,6.63
2023-05-11T18:26:01.991Z,6.50
2023-05-11T18:28:28.917Z,6.80
2023-05-11T18:30:56.193Z,7.00
2023-05-11T18:33:23.087Z,6.03
2023-05-11T18:35:51.613Z,7.23
2023-05-11T18:38:18.548Z,5.97
2023-05-11T18:40:45.512Z,6.70
2023-05-11T18:43:12.547Z,8.47
2023-05-11T18:45:41.114Z,6.37
2023-05-11T18:48:08.217Z,6.80
2023-05-11T18:50:35.904Z,5.70
2023-05-11T18:53:02.790Z,6.50
2023-05-11T18:55:35.510Z,6.70
2023-05-11T18:58:08.128Z,6.67
2023-05-11T19:00:37.668Z,5.83
2023-05-11T19:03:04.656Z,6.30
2023-05-11T19:05:31.671Z,6.50
2023-05-11T19:07:58.544Z,5.97
2023-05-11T19:10:25.371Z,6.03
2023-05-11T19:12:52.260Z,5.60
2023-05-11T19:15:19.243Z,6.07
2023-05-11T19:17:46.575Z,5.80
2023-05-11T19:20:13.826Z,6.37
2023-05-11T19:22:40.828Z,5.87
2023-05-11T19:25:08.737Z,5.50
2023-05-11T19:27:35.957Z,6.40
2023-05-11T19:30:04.778Z,6.10
2023-05-11T19:32:31.694Z,7.00
2023-05-11T19:34:58.546Z,5.57
2023-05-11T19:37:25.389Z,5.47
2023-05-11T19:39:52.305Z,5.17
2023-05-11T19:42:23.558Z,5.77
2023-05-11T19:44:58.889Z,5.70
2023-05-11T19:47:26.038Z,5.50
2023-05-11T19:49:53.195Z,5.60
2023-05-11T19:52:20.191Z,6.20
2023-05-11T19:54:47.307Z,5.47
2023-05-11T19:57:14.147Z,5.80
2023-05-11T19:59:41.326Z,5.07
2023-05-11T20:02:08.160Z,5.60
2023-05-11T20:04:34.961Z,6.00
2023-05-11T20:07:01.872Z,4.80
2023-05-11T20:09:28.747Z,5.30
2023-05-11T20:11:56.036Z,5.50
2023-05-11T20:14:23.334Z,5.40
2023-05-11T20:16:50.175Z,6.20
2023-05-11T20:19:17.266Z,4.97
2023-05-11T20:21:44.158Z,5.33
2023-05-11T20:24:11.057Z,5.57
2023-05-11T20:26:38.316Z,6.20
2023-05-11T20:29:06.922Z,5.33
2023-05-11T20:31:34.204Z,6.50
2023-05-11T20:36:30.949Z,5.80
2023-05-11T20:38:57.837Z,6.90
2023-05-11T20:41:24.779Z,6.40
2023-05-11T20:43:52.897Z,6.57
2023-05-11T20:46:20.720Z,6.40
2023-05-11T20:48:51.455Z,7.33
2023-05-11T20:51:23.290Z,6.90
2023-05-11T20:53:50.837Z,7.30
2023-05-11T20:56:17.623Z,8.53
2023-05-11T20:58:47.530Z,7.73
2023-05-11T21:01:14.563Z,8.10
2023-05-11T21:03:41.695Z,7.67
2023-05-11T21:06:08.995Z,8.23
2023-05-11T21:08:36.462Z,8.30
2023-05-11T21:11:03.367Z,9.00
2023-05-11T21:13:30.730Z,8.90
2023-05-11T21:15:57.679Z,8.27
2023-05-11T21:18:32.103Z,8.40
2023-05-11T21:20:59.286Z,9.20
2023-05-11T21:23:26.165Z,8.80
2023-05-11T21:25:54.818Z,8.10
2023-05-11T21:28:21.820Z,9.60
2023-05-11T21:30:48.739Z,9.10
2023-05-11T21:33:15.728Z,8.90
2023-05-11T21:35:42.642Z,9.67
2023-05-11T21:38:10.084Z,10.20
2023-05-11T21:40:38.945Z,10.60
2023-05-11T21:43:09.088Z,10.37
2023-05-11T21:45:36.615Z,9.60
2023-05-11T21:48:03.688Z,11.10
2023-05-11T21:50:30.606Z,10.90
2023-05-11T21:52:57.454Z,11.90
2023-05-11T21:55:24.498Z,10.33
2023-05-11T21:57:51.692Z,11.97
2023-05-11T22:00:19.623Z,12.57
2023-05-11T22:02:46.738Z,11.63
2023-05-11T22:05:13.656Z,11.87
2023-05-11T22:07:40.699Z,12.57
2023-05-11T22:10:08.055Z,13.00
2023-05-11T22:12:35.111Z,12.97
2023-05-11T22:15:03.784Z,14.27
2023-05-11T22:17:30.740Z,14.40
2023-05-11T22:19:57.587Z,14.37
2023-05-11T22:22:27.747Z,14.43
2023-05-11T22:24:54.768Z,14.33
2023-05-11T22:27:21.664Z,13.70
2023-05-11T22:29:48.665Z,14.90
2023-05-11T22:32:15.499Z,14.00
2023-05-11T22:34:42.493Z,16.10
2023-05-11T22:37:09.402Z,15.10
2023-05-11T22:39:36.455Z,16.40
2023-05-11T22:42:03.573Z,16.40
2023-05-11T22:44:30.472Z,17.13
2023-05-11T22:46:59.381Z,18.70
2023-05-11T22:49:26.997Z,19.33
2023-05-11T22:51:58.647Z,16.80
2023-05-11T22:54:26.684Z,19.53
2023-05-11T22:56:53.953Z,17.70
2023-05-11T22:59:21.055Z,18.00
2023-05-11T23:01:47.956Z,18.67
2023-05-11T23:04:15.279Z,24.83
2023-05-11T23:06:42.261Z,19.80
2023-05-11T23:09:09.864Z,20.03
2023-05-11T23:11:36.750Z,20.30
2023-05-11T23:14:04.202Z,20.33
2023-05-11T23:16:31.079Z,20.50
2023-05-11T23:18:58.118Z,19.70
2023-05-11T23:21:25.058Z,19.63
2023-05-11T23:23:51.903Z,17.10
2023-05-11T23:26:18.873Z,17.17
2023-05-11T23:28:45.660Z,16.23
2023-05-11T23:31:12.528Z,17.93
2023-05-11T23:33:39.500Z,15.03
2023-05-11T23:36:06.711Z,15.70
2023-05-11T23:38:35.140Z,15.33
2023-05-11T23:41:01.971Z,14.67
2023-05-11T23:43:28.949Z,13.23
2023-05-11T23:45:57.695Z,13.87
2023-05-11T23:48:24.757Z,14.80
2023-05-11T23:50:51.596Z,15.63
2023-05-11T23:53:18.729Z,15.47
2023-05-11T23:55:50.850Z,16.50
2023-05-11T23:58:17.713Z,16.60
